createdAt,value
2019-05-11T00:00:35.124Z,80.13
2019-05-11T00:03:04.511Z,80.42
2019-05-11T00:05:35.614Z,80.64
2019-05-11T00:08:05.296Z,80.96
2019-05-11T00:10:44.062Z,81.16
2019-05-11T00:13:13.430Z,81.31
2019-05-11T00:15:44.108Z,81.48
2019-05-11T00:18:13.519Z,81.53
2019-05-11T00:20:43.062Z,81.47
2019-05-11T00:23:12.724Z,81.47
2019-05-11T00:25:42.168Z,81.56
2019-05-11T00:28:11.665Z,81.69
2019-05-11T00:31:50.990Z,81.75
2019-05-11T00:34:20.354Z,81.77
2019-05-11T00:36:50.020Z,81.91
2019-05-11T00:39:19.400Z,82.02
2019-05-11T00:41:54.726Z,81.98
2019-05-11T00:44:24.249Z,82.07
2019-05-11T00:46:53.617Z,82.03
2019-05-11T00:49:23.239Z,82.19
2019-05-11T00:51:54.498Z,82.13
2019-05-11T00:54:24.156Z,82.07
2019-05-11T00:56:53.513Z,82.19
2019-05-11T00:59:23.106Z,82.77
2019-05-11T01:01:54.436Z,82.77
2019-05-11T01:04:24.046Z,82.43
2019-05-11T01:06:53.432Z,82.54
2019-05-11T01:09:23.085Z,82.87
2019-05-11T01:12:32.822Z,82.87
2019-05-11T01:15:02.413Z,82.63
2019-05-11T01:17:32.095Z,82.83
2019-05-11T01:20:01.917Z,82.92
2019-05-11T01:22:31.307Z,83.00
2019-05-11T01:25:00.678Z,83.05
2019-05-11T01:27:30.174Z,83.29
2019-05-11T01:29:59.537Z,83.29
2019-05-11T01:32:29.203Z,83.34
2019-05-11T01:34:58.663Z,83.52
2019-05-11T01:37:29.516Z,83.83
2019-05-11T01:39:59.170Z,83.83
2019-05-11T01:42:28.551Z,83.99
2019-05-11T01:44:58.207Z,84.11
2019-05-11T01:47:27.661Z,84.44
2019-05-11T01:49:57.312Z,84.44
2019-05-11T01:52:26.691Z,84.34
2019-05-11T01:54:56.675Z,84.48
2019-05-11T01:57:26.379Z,84.88
2019-05-11T01:59:56.734Z,84.88
2019-05-11T02:02:27.333Z,85.02
2019-05-11T02:05:14.389Z,85.06
2019-05-11T02:07:43.770Z,85.13
2019-05-11T02:10:13.499Z,85.42
2019-05-11T02:12:42.881Z,85.42
2019-05-11T02:15:12.874Z,85.37
2019-05-11T02:17:42.386Z,85.28
2019-05-11T02:20:12.011Z,85.41
2019-05-11T02:22:41.671Z,85.23
2019-05-11T02:25:11.063Z,85.23
2019-05-11T02:27:41.506Z,85.41
2019-05-11T02:30:11.411Z,85.36
2019-05-11T02:32:40.754Z,85.44
2019-05-11T02:35:10.867Z,85.32
2019-05-11T02:37:40.581Z,85.13
2019-05-11T02:40:10.522Z,85.08
2019-05-11T02:42:40.056Z,85.05
2019-05-11T02:45:09.948Z,85.05
2019-05-11T02:47:39.499Z,85.09
2019-05-11T02:50:09.224Z,85.20
2019-05-11T02:52:38.950Z,85.50
2019-05-11T02:55:10.932Z,85.50
2019-05-11T02:57:40.527Z,85.35
2019-05-11T03:00:10.394Z,85.35
2019-05-11T03:03:04.585Z,85.50
2019-05-11T03:05:34.000Z,85.48
2019-05-11T03:08:03.680Z,85.41
2019-05-11T03:10:33.041Z,85.38
2019-05-11T03:13:02.720Z,85.28
2019-05-11T03:15:32.381Z,85.09
2019-05-11T03:18:01.801Z,84.98
2019-05-11T03:20:33.510Z,84.90
2019-05-11T03:23:02.868Z,84.94
2019-05-11T03:25:32.544Z,84.92
2019-05-11T03:28:01.900Z,84.91
2019-05-11T03:30:32.706Z,84.84
2019-05-11T03:33:02.262Z,84.84
2019-05-11T03:35:31.628Z,85.00
2019-05-11T03:38:00.982Z,85.01
2019-05-11T03:40:30.666Z,85.18
2019-05-11T03:43:00.349Z,85.18
2019-05-11T03:45:29.696Z,85.27
2019-05-11T03:47:59.083Z,85.40
2019-05-11T03:50:28.561Z,85.52
2019-05-11T03:52:58.924Z,85.52
2019-05-11T03:55:28.582Z,85.38
2019-05-11T03:57:57.963Z,85.44
2019-05-11T04:00:27.643Z,85.60
2019-05-11T04:03:21.889Z,85.60
2019-05-11T04:05:51.567Z,85.61
2019-05-11T04:08:20.981Z,85.51
2019-05-11T04:10:50.661Z,85.53
2019-05-11T04:13:20.038Z,85.49
2019-05-11T04:15:49.820Z,85.47
2019-05-11T04:18:19.183Z,85.47
2019-05-11T04:20:48.636Z,85.19
2019-05-11T04:23:18.066Z,85.19
2019-05-11T04:25:48.749Z,85.11
2019-05-11T04:28:18.101Z,84.89
2019-05-11T04:30:47.724Z,84.61
2019-05-11T04:33:17.090Z,84.61
2019-05-11T04:35:46.764Z,84.74
2019-05-11T04:38:16.138Z,84.77
2019-05-11T04:40:45.782Z,84.42
2019-05-11T04:43:15.146Z,84.42
2019-05-11T04:45:45.742Z,84.68
2019-05-11T04:48:15.128Z,84.76
2019-05-11T04:50:44.774Z,84.69
2019-05-11T04:53:14.761Z,84.71
2019-05-11T04:55:44.135Z,84.55
2019-05-11T04:58:13.804Z,84.41
2019-05-11T05:00:43.163Z,84.41
2019-05-11T05:03:12.797Z,84.06
2019-05-11T05:05:42.179Z,84.04
2019-05-11T05:08:11.832Z,83.60
2019-05-11T05:10:52.387Z,83.58
2019-05-11T05:13:23.376Z,83.54
2019-05-11T05:15:53.362Z,83.30
2019-05-11T05:18:22.789Z,83.08
2019-05-11T05:20:53.052Z,83.08
2019-05-11T05:23:22.726Z,83.24
2019-05-11T05:28:34.163Z,83.06
2019-05-11T05:31:09.843Z,82.91
2019-05-11T05:33:39.204Z,82.77
2019-05-11T05:36:09.866Z,82.52
2019-05-11T05:38:39.236Z,82.55
2019-05-11T05:41:09.083Z,82.67
2019-05-11T05:43:38.701Z,82.53
2019-05-11T05:46:09.086Z,82.33
2019-05-11T05:48:38.762Z,82.28
2019-05-11T05:51:09.341Z,82.12
2019-05-11T05:53:38.823Z,82.08
2019-05-11T05:56:08.512Z,82.08
2019-05-11T05:58:37.931Z,81.47
2019-05-11T06:01:10.088Z,81.14
2019-05-11T06:03:38.746Z,80.73
2019-05-11T06:06:08.378Z,80.92
2019-05-11T06:08:37.871Z,80.65
2019-05-11T06:11:07.291Z,79.95
2019-05-11T06:13:45.304Z,79.90
2019-05-11T06:16:08.428Z,79.75
2019-05-11T06:18:37.935Z,79.43
2019-05-11T06:21:08.292Z,79.64
2019-05-11T06:23:38.013Z,79.71
2019-05-11T06:26:07.427Z,79.60
2019-05-11T06:28:37.060Z,79.40
2019-05-11T06:31:06.548Z,79.09
2019-05-11T06:33:35.953Z,78.78
2019-05-11T06:36:05.377Z,78.68
2019-05-11T06:38:34.914Z,78.76
2019-05-11T06:41:04.610Z,78.29
2019-05-11T06:43:34.072Z,78.27
2019-05-11T06:46:03.451Z,78.27
2019-05-11T06:48:32.965Z,78.16
2019-05-11T06:51:08.082Z,78.37
2019-05-11T06:53:37.451Z,78.21
2019-05-11T06:56:07.101Z,78.35
2019-05-11T06:58:36.527Z,78.35
2019-05-11T07:01:06.330Z,78.40
2019-05-11T07:03:36.023Z,78.10
2019-05-11T07:06:05.405Z,78.23
2019-05-11T07:08:34.999Z,78.23
2019-05-11T07:11:04.375Z,78.29
2019-05-11T07:13:34.032Z,78.67
2019-05-11T07:16:04.494Z,78.93
2019-05-11T07:18:34.304Z,79.05
2019-05-11T07:21:03.985Z,79.05
2019-05-11T07:23:33.375Z,79.43
2019-05-11T07:26:03.356Z,78.81
2019-05-11T07:28:33.018Z,78.68
2019-05-11T07:31:02.797Z,78.46
2019-05-11T07:33:32.179Z,78.00
2019-05-11T07:36:01.543Z,77.49
2019-05-11T07:38:32.547Z,77.11
2019-05-11T07:41:02.209Z,77.97
2019-05-11T07:43:31.585Z,78.35
2019-05-11T07:46:01.247Z,78.85
2019-05-11T07:48:30.632Z,79.19
2019-05-11T07:51:00.302Z,79.55
2019-05-11T07:54:03.028Z,80.60
2019-05-11T07:56:32.393Z,80.79
2019-05-11T07:59:01.782Z,81.07
2019-05-11T08:01:31.287Z,81.20
2019-05-11T08:04:00.658Z,80.95
2019-05-11T08:06:30.187Z,80.95
2019-05-11T08:08:59.553Z,80.95
2019-05-11T08:11:31.481Z,81.96
2019-05-11T08:14:00.549Z,81.96
2019-05-11T08:16:30.355Z,82.55
2019-05-11T08:18:59.721Z,82.55
2019-05-11T08:21:29.318Z,83.11
2019-05-11T08:23:59.011Z,83.11
2019-05-11T08:26:28.551Z,84.25
2019-05-11T08:28:58.236Z,84.87
2019-05-11T08:31:28.677Z,84.87
2019-05-11T08:33:58.494Z,84.85
2019-05-11T08:36:28.996Z,86.05
2019-05-11T08:38:58.799Z,86.05
2019-05-11T08:41:28.535Z,85.74
2019-05-11T08:43:58.616Z,86.15
2019-05-11T08:46:28.341Z,86.64
2019-05-11T08:48:59.495Z,86.82
2019-05-11T08:51:28.801Z,87.25
2019-05-11T08:53:59.464Z,87.15
2019-05-11T08:56:29.050Z,87.37
2019-05-11T08:58:58.755Z,87.37
2019-05-11T09:01:28.875Z,87.53
2019-05-11T09:03:58.646Z,87.59
2019-05-11T09:06:29.978Z,87.66
2019-05-11T09:08:59.647Z,87.56
2019-05-11T09:11:29.262Z,87.37
2019-05-11T09:13:58.952Z,87.39
2019-05-11T09:16:29.374Z,87.91
2019-05-11T09:18:58.783Z,87.91
2019-05-11T09:21:31.246Z,87.82
2019-05-11T09:24:00.628Z,87.25
2019-05-11T09:26:30.291Z,87.97
2019-05-11T09:28:59.678Z,88.11
2019-05-11T09:31:29.336Z,88.45
2019-05-11T09:33:58.833Z,88.72
2019-05-11T09:36:28.772Z,88.89
2019-05-11T09:38:59.442Z,89.14
2019-05-11T09:41:29.079Z,89.06
2019-05-11T09:43:58.884Z,88.80
2019-05-11T09:46:28.487Z,88.63
2019-05-11T09:48:59.236Z,88.27
2019-05-11T09:51:28.862Z,87.98
2019-05-11T09:53:58.887Z,86.61
2019-05-11T09:56:28.871Z,86.22
2019-05-11T09:58:58.581Z,86.00
2019-05-11T10:01:29.644Z,85.88
2019-05-11T10:03:59.091Z,86.21
2019-05-11T10:06:28.591Z,86.18
2019-05-11T10:08:58.095Z,85.78
2019-05-11T10:11:28.228Z,85.61
2019-05-11T10:13:57.995Z,85.56
2019-05-11T10:16:28.152Z,84.59
2019-05-11T10:18:59.110Z,85.00
2019-05-11T10:21:29.606Z,85.01
2019-05-11T10:23:58.985Z,84.53
2019-05-11T10:26:28.580Z,84.18
2019-05-11T10:28:58.628Z,83.83
2019-05-11T10:31:29.580Z,83.79
2019-05-11T10:33:59.032Z,83.13
2019-05-11T10:36:28.660Z,83.39
2019-05-11T10:38:58.867Z,83.53
2019-05-11T10:41:30.520Z,83.20
2019-05-11T10:43:59.928Z,83.20
2019-05-11T10:46:29.612Z,82.60
2019-05-11T10:48:59.039Z,83.05
2019-05-11T10:51:29.619Z,83.67
2019-05-11T10:53:59.050Z,83.31
2019-05-11T10:56:28.672Z,83.28
2019-05-11T10:58:59.322Z,83.09
2019-05-11T11:01:28.802Z,82.86
2019-05-11T11:03:58.820Z,82.10
2019-05-11T11:06:28.377Z,82.06
2019-05-11T11:08:58.143Z,81.46
2019-05-11T11:11:27.984Z,80.40
2019-05-11T11:13:58.599Z,79.42
2019-05-11T11:16:36.883Z,79.42
2019-05-11T11:18:59.179Z,78.77
2019-05-11T11:21:28.800Z,78.88
2019-05-11T11:23:58.731Z,78.18
2019-05-11T11:26:28.614Z,77.57
2019-05-11T11:28:59.780Z,77.73
2019-05-11T11:31:29.168Z,77.63
2019-05-11T11:33:58.903Z,76.92
2019-05-11T11:36:28.601Z,77.01
2019-05-11T11:38:58.472Z,76.76
2019-05-11T11:41:30.080Z,76.76
2019-05-11T11:44:00.769Z,75.61
2019-05-11T11:46:30.147Z,74.15
2019-05-11T11:48:59.800Z,73.54
2019-05-11T11:51:29.187Z,73.41
2019-05-11T11:53:58.843Z,72.88
2019-05-11T11:56:28.456Z,72.56
2019-05-11T11:58:58.205Z,71.76
2019-05-11T12:01:29.522Z,70.12
2019-05-11T12:04:00.222Z,70.79
2019-05-11T12:06:29.880Z,70.45
2019-05-11T12:08:59.263Z,71.30
2019-05-11T12:11:30.833Z,71.10
2019-05-11T12:14:01.584Z,70.13
2019-05-11T12:16:30.964Z,70.13
2019-05-11T12:19:00.337Z,69.53
2019-05-11T12:21:31.195Z,69.36
2019-05-11T12:24:00.853Z,68.24
2019-05-11T12:26:30.235Z,66.16
2019-05-11T12:29:00.119Z,65.29
2019-05-11T12:31:32.520Z,64.17
2019-05-11T12:34:00.851Z,63.41
2019-05-11T12:36:32.677Z,62.84
2019-05-11T12:39:02.160Z,61.52
2019-05-11T12:41:34.548Z,59.64
2019-05-11T12:44:04.414Z,59.13
2019-05-11T12:46:36.655Z,60.48
2019-05-11T12:49:07.324Z,60.29
2019-05-11T12:51:38.416Z,59.29
2019-05-11T12:54:08.401Z,56.92
2019-05-11T12:56:38.454Z,55.75
2019-05-11T12:59:08.388Z,55.47
2019-05-11T13:01:38.382Z,56.30
2019-05-11T13:04:08.970Z,54.13
2019-05-11T13:06:38.841Z,54.26
2019-05-11T13:09:08.564Z,55.43
2019-05-11T13:11:38.872Z,54.78
2019-05-11T13:14:08.316Z,54.93
2019-05-11T13:16:38.124Z,55.69
2019-05-11T13:19:08.532Z,55.20
2019-05-11T13:21:38.954Z,56.45
2019-05-11T13:24:08.559Z,56.84
2019-05-11T13:26:38.306Z,57.50
2019-05-11T13:29:08.264Z,56.56
2019-05-11T13:31:40.545Z,57.13
2019-05-11T13:34:10.205Z,54.92
2019-05-11T13:36:39.590Z,55.40
2019-05-11T13:39:09.253Z,56.21
2019-05-11T13:41:47.656Z,57.48
2019-05-11T13:44:18.575Z,58.18
2019-05-11T13:46:48.338Z,58.37
2019-05-11T13:49:18.036Z,58.81
2019-05-11T13:51:48.636Z,59.09
2019-05-11T13:54:18.623Z,59.36
2019-05-11T13:56:48.489Z,58.60
2019-05-11T13:59:18.817Z,58.98
2019-05-11T14:01:48.434Z,59.05
2019-05-11T14:06:49.174Z,59.79
2019-05-11T14:09:18.699Z,58.84
2019-05-11T14:11:50.321Z,58.53
2019-05-11T14:14:19.677Z,59.10
2019-05-11T14:16:49.328Z,58.14
2019-05-11T14:19:20.062Z,55.87
2019-05-11T14:21:49.441Z,54.25
2019-05-11T14:24:20.080Z,55.03
2019-05-11T14:26:49.501Z,54.02
2019-05-11T14:29:19.142Z,54.53
2019-05-11T14:32:00.788Z,55.65
2019-05-11T14:32:21.066Z,59.47
2019-05-11T14:34:30.318Z,56.33
2019-05-11T14:36:59.697Z,55.38
2019-05-11T14:39:29.254Z,54.26
2019-05-11T14:41:58.882Z,52.21
2019-05-11T14:44:28.644Z,51.92
2019-05-11T14:46:59.285Z,52.07
2019-05-11T14:49:28.731Z,52.94
2019-05-11T14:51:58.602Z,54.25
2019-05-11T14:54:28.883Z,54.15
2019-05-11T14:56:59.485Z,52.64
2019-05-11T14:59:29.142Z,50.99
2019-05-11T15:02:01.551Z,50.99
2019-05-11T15:04:31.113Z,50.28
2019-05-11T15:07:00.721Z,51.43
2019-05-11T15:09:30.268Z,50.29
2019-05-11T15:11:59.652Z,49.20
2019-05-11T15:14:29.266Z,50.15
2019-05-11T15:16:58.678Z,51.14
2019-05-11T15:19:28.390Z,51.14
2019-05-11T15:22:02.915Z,50.81
2019-05-11T15:24:32.379Z,50.58
2019-05-11T15:27:02.048Z,50.74
2019-05-11T15:29:31.429Z,50.74
2019-05-11T15:32:08.498Z,51.53
2019-05-11T15:34:38.010Z,52.36
2019-05-11T15:37:09.693Z,51.85
2019-05-11T15:39:39.411Z,49.13
2019-05-11T15:42:14.626Z,49.11
2019-05-11T15:44:39.865Z,48.71
2019-05-11T15:47:09.614Z,47.71
2019-05-11T15:49:39.833Z,47.75
2019-05-11T15:52:09.536Z,46.88
2019-05-11T15:54:38.916Z,47.72
2019-05-11T15:57:08.627Z,48.51
2019-05-11T15:59:38.823Z,48.97
2019-05-11T16:02:08.751Z,49.60
2019-05-11T16:04:41.401Z,50.33
2019-05-11T16:07:09.727Z,51.81
2019-05-11T16:09:39.403Z,51.40
2019-05-11T16:12:08.770Z,50.68
2019-05-11T16:14:38.453Z,51.90
2019-05-11T16:17:08.762Z,52.03
2019-05-11T16:19:41.126Z,51.73
2019-05-11T16:22:10.095Z,51.73
2019-05-11T16:24:40.189Z,52.56
2019-05-11T16:27:10.914Z,52.01
2019-05-11T16:29:40.448Z,52.66
2019-05-11T16:32:10.115Z,51.67
2019-05-11T16:34:45.252Z,52.54
2019-05-11T16:37:14.783Z,52.14
2019-05-11T16:39:46.762Z,52.26
2019-05-11T16:42:15.742Z,52.04
2019-05-11T16:44:45.412Z,52.47
2019-05-11T16:47:14.799Z,52.78
2019-05-11T16:49:45.149Z,52.89
2019-05-11T16:53:05.379Z,53.19
2019-05-11T16:55:34.762Z,54.11
2019-05-11T16:58:04.425Z,54.63
2019-05-11T17:00:43.532Z,55.03
2019-05-11T17:03:12.921Z,54.33
2019-05-11T17:05:42.572Z,54.00
2019-05-11T17:08:11.998Z,53.87
2019-05-11T17:10:43.267Z,54.68
2019-05-11T17:13:12.927Z,55.33
2019-05-11T17:15:42.585Z,55.47
2019-05-11T17:18:11.965Z,56.45
2019-05-11T17:20:41.633Z,57.17
2019-05-11T17:23:11.288Z,57.39
2019-05-11T17:25:42.315Z,57.88
2019-05-11T17:28:11.900Z,58.39
2019-05-11T17:30:44.805Z,58.75
2019-05-11T17:33:14.162Z,58.75
2019-05-11T17:35:43.621Z,59.86
2019-05-11T17:38:14.300Z,59.77
2019-05-11T17:40:43.771Z,59.50
2019-05-11T17:43:13.135Z,60.01
2019-05-11T17:45:42.752Z,60.45
2019-05-11T17:48:12.193Z,60.48
2019-05-11T17:50:41.735Z,60.72
2019-05-11T17:53:11.094Z,60.74
2019-05-11T17:55:40.756Z,60.50
2019-05-11T17:58:10.147Z,60.45
2019-05-11T18:00:39.759Z,61.17
2019-05-11T18:03:11.280Z,61.27
2019-05-11T18:05:41.078Z,61.91
2019-05-11T18:08:11.008Z,62.33
2019-05-11T18:10:40.387Z,62.58
2019-05-11T18:13:10.317Z,62.61
2019-05-11T18:15:39.844Z,62.89
2019-05-11T18:18:09.622Z,63.40
2019-05-11T18:20:43.567Z,63.93
2019-05-11T18:23:13.227Z,63.88
2019-05-11T18:25:42.821Z,64.43
2019-05-11T18:28:14.251Z,64.26
2019-05-11T18:30:43.270Z,64.01
2019-05-11T18:33:12.928Z,64.60
2019-05-11T18:35:42.597Z,65.01
2019-05-11T18:38:12.020Z,65.39
2019-05-11T18:40:41.465Z,65.35
2019-05-11T18:43:11.072Z,65.29
2019-05-11T18:45:40.793Z,65.45
2019-05-11T18:48:10.416Z,65.95
2019-05-11T18:50:39.825Z,66.24
2019-05-11T18:53:09.479Z,66.23
2019-05-11T18:55:38.967Z,66.76
2019-05-11T18:58:08.286Z,66.69
2019-05-11T19:00:38.252Z,66.59
2019-05-11T19:03:08.862Z,66.93
2019-05-11T19:05:38.685Z,66.92
2019-05-11T19:08:08.389Z,67.21
2019-05-11T19:10:38.502Z,67.23
2019-05-11T19:13:08.155Z,67.79
2019-05-11T19:15:38.807Z,68.06
2019-05-11T19:18:08.373Z,68.48
2019-05-11T19:20:50.871Z,68.48
2019-05-11T19:23:21.823Z,68.57
2019-05-11T19:25:51.206Z,68.38
2019-05-11T19:28:20.865Z,68.76
2019-05-11T19:30:50.253Z,69.19
2019-05-11T19:33:19.897Z,69.24
2019-05-11T19:35:49.276Z,69.20
2019-05-11T19:38:19.089Z,69.14
2019-05-11T19:40:48.847Z,69.44
2019-05-11T19:43:18.727Z,69.64
2019-05-11T19:45:48.729Z,69.76
2019-05-11T19:48:18.163Z,70.08
2019-05-11T19:51:02.643Z,70.57
2019-05-11T19:53:18.974Z,70.75
2019-05-11T19:55:48.355Z,71.01
2019-05-11T19:58:19.224Z,72.23
2019-05-11T20:00:49.043Z,71.34
2019-05-11T20:03:18.429Z,70.79
2019-05-11T20:05:48.741Z,71.18
2019-05-11T20:08:18.562Z,71.38
2019-05-11T20:10:49.145Z,71.46
2019-05-11T20:13:18.574Z,71.53
2019-05-11T20:15:48.559Z,71.59
2019-05-11T20:18:18.509Z,72.04
2019-05-11T20:20:48.208Z,72.29
2019-05-11T20:23:54.169Z,72.45
2019-05-11T20:26:23.567Z,72.79
2019-05-11T20:28:53.128Z,72.82
2019-05-11T20:31:22.783Z,73.00
2019-05-11T20:33:52.165Z,73.44
2019-05-11T20:36:21.518Z,73.69
2019-05-11T20:38:51.110Z,73.73
2019-05-11T20:41:20.471Z,73.56
2019-05-11T20:43:50.170Z,73.74
2019-05-11T20:46:20.743Z,74.13
2019-05-11T20:48:50.127Z,74.28
2019-05-11T20:51:50.041Z,74.41
2019-05-11T20:54:20.178Z,74.38
2019-05-11T20:56:49.536Z,74.69
2019-05-11T20:59:19.065Z,74.92
2019-05-11T21:01:48.495Z,74.96
2019-05-11T21:04:19.068Z,75.15
2019-05-11T21:06:48.423Z,75.11
2019-05-11T21:09:18.550Z,75.49
2019-05-11T21:11:48.418Z,75.47
2019-05-11T21:14:18.319Z,75.44
2019-05-11T21:16:48.686Z,75.55
2019-05-11T21:19:18.796Z,75.41
2019-05-11T21:21:53.646Z,75.32
2019-05-11T21:24:21.298Z,75.59
2019-05-11T21:26:50.654Z,75.70
2019-05-11T21:29:21.317Z,75.91
2019-05-11T21:31:54.275Z,75.91
2019-05-11T21:34:23.848Z,76.28
2019-05-11T21:36:53.290Z,76.59
2019-05-11T21:39:22.738Z,76.55
2019-05-11T21:41:58.342Z,77.03
2019-05-11T21:44:28.097Z,78.07
2019-05-11T21:47:12.958Z,78.07
2019-05-11T21:50:10.931Z,82.07
2019-05-11T21:52:41.462Z,82.07
2019-05-11T21:55:11.703Z,77.59
2019-05-11T21:57:41.299Z,75.75
2019-05-11T22:00:11.438Z,75.75
2019-05-11T22:02:44.880Z,76.03
2019-05-11T22:05:14.720Z,76.03
2019-05-11T22:07:44.415Z,76.45
2019-05-11T22:10:17.781Z,76.45
2019-05-11T22:12:49.047Z,76.91
2019-05-11T22:15:18.776Z,77.21
2019-05-11T22:17:48.292Z,78.37
2019-05-11T22:20:18.352Z,78.37
2019-05-11T22:22:48.006Z,78.61
2019-05-11T22:25:18.281Z,78.80
2019-05-11T22:27:48.752Z,78.94
2019-05-11T22:30:18.809Z,78.76
2019-05-11T22:32:48.310Z,78.85
2019-05-11T22:35:18.291Z,78.85
2019-05-11T22:37:48.984Z,79.24
2019-05-11T22:40:18.702Z,79.38
2019-05-11T22:42:48.408Z,79.73
2019-05-11T22:45:18.710Z,79.73
2019-05-11T22:47:48.366Z,80.46
2019-05-11T22:50:18.946Z,80.46
2019-05-11T22:52:48.763Z,80.75
2019-05-11T22:55:19.069Z,80.75
2019-05-11T22:57:48.759Z,80.70
2019-05-11T23:00:21.570Z,80.84
2019-05-11T23:02:51.238Z,80.87
2019-05-11T23:05:20.603Z,81.10
2019-05-11T23:07:50.000Z,81.25
2019-05-11T23:10:19.498Z,81.51
2019-05-11T23:12:48.864Z,81.51
2019-05-11T23:15:19.691Z,81.55
2019-05-11T23:17:49.357Z,81.67
2019-05-11T23:20:18.966Z,81.80
2019-05-11T23:22:58.007Z,81.90
2019-05-11T23:25:19.961Z,82.02
2019-05-11T23:27:49.537Z,82.07
2019-05-11T23:30:19.985Z,82.26
2019-05-11T23:32:49.921Z,82.42
2019-05-11T23:35:19.742Z,82.42
2019-05-11T23:37:50.004Z,82.52
2019-05-11T23:40:19.928Z,82.59
2019-05-11T23:42:49.624Z,82.60
2019-05-11T23:45:19.399Z,82.74
2019-05-11T23:47:49.237Z,82.84
2019-05-11T23:50:19.758Z,83.01
2019-05-11T23:53:05.127Z,83.09
2019-05-11T23:55:20.496Z,83.20
2019-05-11T23:57:49.861Z,83.41
